Meteo Giornale » Osservazioni meteo Stati Uniti (USA) » Marysville Yuba
ore: 06:01 - Osservazioni Meteo Marysville Yuba
Lat. 39° 5' N Lon. 121° 34' W Alt. 19 metri s.l.m.
14 °C
Poco Nuvoloso
Temp. 24 Ore
14 °C
27 °C
Est/Sud-Est
16.7 Km/h
Dew point 11 °C
Umidità 82 %
Visibilità 10 Km
Il sole sorge alle ore 06:35
Il sole tramonta alle ore 19:36
| Data e Ora | Cielo e Fenomeni | T °C | DP °C | Um. % | Pres. hPa | Vis. km | Vento km/h | |
|---|---|---|---|---|---|---|---|---|
| Oggi h: 06:01 | Poco Nuvoloso | 14 | 11 | 82 | 1012 | 10 | E/SE 16.7 | |
| Oggi h: 05:53 | Molto Nuvoloso | 14 | 11 | 82 | 1012 | 10 | E/SE 16.7 | |
| Oggi h: 05:36 | Molto Nuvoloso | 14 | 11 | 82 | 1012 | 10 | SE 13 | |
| Oggi h: 04:53 | Sereno | 14 | 11 | 82 | 1013 | 10 | SE 13 | |
| Oggi h: 04:09 | Nuvoloso | 15 | 12 | 82 | 1012 | 10 | E/SE 18.5 | |
| Oggi h: 03:53 | Molto Nuvoloso | 15 | 12 | 82 | 1012 | 10 | SE 18.5 | |
| Oggi h: 03:44 | Molto Nuvoloso | 15 | 12 | 82 | 1012 | 10 | SE 18.5 | |
| Oggi h: 02:53 | Sereno | 15 | 12 | 82 | 1012 | 10 | SE 20.3 | |
| Oggi h: 01:53 | Sereno | 15 | 12 | 82 | 1012 | 10 | SE 25.9 | |
| Oggi h: 00:53 | Sereno | 16 | 12 | 77 | 1011 | 10 | SE 20.3 | |
| Ieri h: 23:53 | Sereno | 16 | 12 | 77 | 1011 | 10 | SE 25.9 | |
| Ieri h: 22:53 | Sereno | 16 | 12 | 77 | 1011 | 10 | S/SE 25.9 | |
| Ieri h: 21:53 | Sereno | 17 | 12 | 72 | 1011 | 10 | S/SE 22.2 | |
| Ieri h: 20:53 | Sereno | 18 | 12 | 67 | 1010 | 10 | S/SE 22.2 | |
| Ieri h: 19:53 | Sereno | 20 | 12 | 59 | 1009 | 10 | S/SE 25.9 | |
| Ieri h: 18:53 | Sereno | 24 | 12 | 47 | 1009 | 10 | S/SE 27.8 | |
| Ieri h: 17:53 | Sereno | 25 | 11 | 41 | 1009 | 10 | S/SE 25.9 | |
| Ieri h: 16:53 | Sereno | 26 | 11 | 39 | 1009 | 10 | S/SE 24 | |
| Ieri h: 15:53 | Sereno | 27 | 11 | 36 | 1010 | 10 | S/SE 27.8 | |
| Ieri h: 14:53 | Sereno | 26 | 12 | 41 | 1010 | 10 | S 24 | |
| Ieri h: 13:53 | Sereno | 24 | 12 | 47 | 1011 | 10 | S/SE 24 | |
| Ieri h: 12:53 | Sereno | 22 | 12 | 53 | 1011 | 10 | S 22.2 | |
| Ieri h: 11:53 | Sereno | 22 | 12 | 53 | 1012 | 10 | S 24 | |
| Ieri h: 10:53 | Sereno | 21 | 12 | 56 | 1012 | 10 | S 20.3 | |
| Ieri h: 09:53 | Sereno | 19 | 11 | 59 | 1011 | 10 | S/SE 18.5 | |
| Ieri h: 08:53 | Sereno | 18 | 12 | 67 | 1012 | 10 | S/SE 18.5 | |
| Ieri h: 07:53 | Sereno | 16 | 11 | 72 | 1011 | 10 | SE 14.8 | |
| Ieri h: 06:53 | Sereno | 15 | 11 | 76 | 1010 | 10 | SE 11.1 | |



